This is the latest recevied weather packets stored in our database for station/object W9PEM-13. If no packets are shown the sender has not sent any weather packets the latest 1 day(s).
| Time | Temp. | Humidity | Pressure | Rain* | Wind** | Luminosity | Snow |
|---|---|---|---|---|---|---|---|
| 1778080649 | 10° C | 46% | 982.5 hPa | 0 mm | - | 168 W/m² | - |
| 1778078212 | 10° C | 44% | 982.5 hPa | 0 mm | - | 318 W/m² | - |
| 1778075847 | 8.33° C | 56% | 982.5 hPa | 0 mm | - | 345 W/m² | - |
| 1778075245 | 8.33° C | 55% | 982.6 hPa | 0 mm | - | 291 W/m² | - |
| 1778074617 | 7.78° C | 56% | 982.4 hPa | 0 mm | - | 236 W/m² | - |
| 1778074558 | 7.78° C | 56% | 982.4 hPa | 0 mm | - | 236 W/m² | - |
| 1778073358 | 7.22° C | 62% | 982.4 hPa | 0 mm | - | 279 W/m² | - |
| 1778072851 | 6.11° C | 66% | 982.4 hPa | 0 mm | - | 384 W/m² | - |
| 1778070958 | 4.44° C | 70% | 982 hPa | 0 mm | - | 265 W/m² | - |
| 1778070358 | 4.44° C | 72% | 982 hPa | 0 mm | - | 94 W/m² | - |
| 1778069835 | 3.89° C | 77% | 981.9 hPa | 0 mm | - | 83 W/m² | - |
| 1778069758 | 3.89° C | 77% | 981.9 hPa | 0 mm | - | 83 W/m² | - |
| 1778068558 | 3.33° C | 81% | 982 hPa | 0 mm | - | 46 W/m² | - |
| 1778068062 | 2.78° C | 86% | 982 hPa | 0 mm | - | 39 W/m² | - |
| 1778067535 | 2.22° C | 90% | 981.7 hPa | 0 mm | - | 47 W/m² | - |
| 1778066935 | 1.67° C | 90% | 981.7 hPa | 0 mm | - | 31 W/m² | - |
| 1778066758 | 1.67° C | 90% | 981.7 hPa | 0 mm | - | 31 W/m² | - |
| 1778065749 | 1.67° C | 91% | 981.6 hPa | 0 mm | - | 17 W/m² | - |
| 1778065149 | 1.11° C | 91% | 981.5 hPa | 0 mm | - | 11 W/m² | - |
| 1778064050 | 0.56° C | 91% | 981.4 hPa | 0 mm | - | 3 W/m² | - |
| 1778063949 | 0.56° C | 91% | 981.4 hPa | 0 mm | - | 3 W/m² | - |
| 1778063462 | 0.56° C | 91% | 981.3 hPa | 0 mm | - | 1 W/m² | - |
| 1778062262 | 0.56° C | 90% | 981 hPa | 0 mm | - | 0 W/m² | - |
| 1778060951 | 0° C | 90% | 981.1 hPa | 0 mm | - | 0 W/m² | - |
| 1778059839 | -0.56° C | 91% | 981.4 hPa | 0 mm | - | 0 W/m² | - |
* Rain latest hour (hover to see other rain measurements)
** Current wind speed in m/s (hover to see current wind gust speed)